createdAt,value
2023-04-25T00:00:50.549Z,94110.00
2023-04-25T00:01:50.507Z,94110.00
2023-04-25T00:02:50.579Z,94108.00
2023-04-25T00:03:50.854Z,94108.00
2023-04-25T00:04:50.747Z,94110.00
2023-04-25T00:05:50.561Z,94106.00
2023-04-25T00:06:50.458Z,94106.00
2023-04-25T00:07:50.447Z,94106.00
2023-04-25T00:08:50.438Z,94108.00
2023-04-25T00:09:50.467Z,94108.00
2023-04-25T00:10:50.452Z,94108.00
2023-04-25T00:11:50.440Z,94106.00
2023-04-25T00:12:50.427Z,94110.00
2023-04-25T00:13:50.641Z,94108.00
2023-04-25T00:14:50.423Z,94108.00
2023-04-25T00:15:50.451Z,94106.00
2023-04-25T00:16:50.396Z,94108.00
2023-04-25T00:17:50.411Z,94106.00
2023-04-25T00:18:50.402Z,94108.00
2023-04-25T00:19:50.371Z,94108.00
2023-04-25T00:20:50.444Z,94106.00
2023-04-25T00:21:50.368Z,94106.00
2023-04-25T00:22:50.380Z,94104.00
2023-04-25T00:23:50.665Z,94106.00
2023-04-25T00:24:50.411Z,94110.00
2023-04-25T00:25:50.441Z,94108.00
2023-04-25T00:26:50.407Z,94110.00
2023-04-25T00:27:50.429Z,94110.00
2023-04-25T00:28:50.438Z,94118.00
2023-04-25T00:29:50.471Z,94108.00
2023-04-25T00:30:50.499Z,94108.00
2023-04-25T00:31:50.507Z,94110.00
2023-04-25T00:32:50.476Z,94108.00
2023-04-25T00:33:50.731Z,94110.00
2023-04-25T00:34:50.518Z,94118.00
2023-04-25T00:35:50.524Z,94110.00
2023-04-25T00:36:50.533Z,94118.00
2023-04-25T00:37:50.541Z,94110.00
2023-04-25T00:38:50.529Z,94110.00
2023-04-25T00:39:50.542Z,94110.00
2023-04-25T00:40:50.568Z,94108.00
2023-04-25T00:41:50.598Z,94108.00
2023-04-25T00:42:50.560Z,94106.00
2023-04-25T00:43:50.778Z,94106.00
2023-04-25T00:44:50.587Z,94106.00
2023-04-25T00:45:50.604Z,94106.00
2023-04-25T00:46:50.679Z,94106.00
2023-04-25T00:47:50.647Z,94102.00
2023-04-25T00:48:50.651Z,94106.00
2023-04-25T00:49:50.629Z,94106.00
2023-04-25T00:50:50.644Z,94106.00
2023-04-25T00:51:50.684Z,94106.00
2023-04-25T00:52:50.684Z,94106.00
2023-04-25T00:53:50.949Z,94106.00
2023-04-25T00:54:50.663Z,94102.00
2023-04-25T00:55:50.681Z,94102.00
2023-04-25T00:56:50.698Z,94100.00
2023-04-25T00:57:50.731Z,94098.00
2023-04-25T00:58:50.707Z,94094.00
2023-04-25T00:59:50.753Z,94094.00
2023-04-25T01:00:50.766Z,94094.00
2023-04-25T01:01:50.738Z,94094.00
2023-04-25T01:02:50.933Z,94094.00
2023-04-25T01:03:50.963Z,94088.00
2023-04-25T01:04:50.777Z,94087.00
2023-04-25T01:05:50.769Z,94083.00
2023-04-25T01:06:50.779Z,94087.00
2023-04-25T01:07:50.802Z,94079.00
2023-04-25T01:08:50.782Z,94075.00
2023-04-25T01:09:50.852Z,94073.00
2023-04-25T01:10:50.812Z,94073.00
2023-04-25T01:11:50.824Z,94073.00
2023-04-25T01:12:50.850Z,94071.00
2023-04-25T01:13:51.043Z,94075.00
2023-04-25T01:14:50.831Z,94075.00
2023-04-25T01:15:50.845Z,94077.00
2023-04-25T01:16:50.882Z,94077.00
2023-04-25T01:17:50.918Z,94079.00
2023-04-25T01:18:50.856Z,94081.00
2023-04-25T01:19:50.927Z,94081.00
2023-04-25T01:20:50.895Z,94083.00
2023-04-25T01:21:50.906Z,94083.00
2023-04-25T01:22:50.892Z,94085.00
2023-04-25T01:23:51.120Z,94088.00
2023-04-25T01:24:50.922Z,94085.00
2023-04-25T01:25:50.945Z,94088.00
2023-04-25T01:26:51.039Z,94088.00
2023-04-25T01:27:50.980Z,94088.00
2023-04-25T01:28:50.941Z,94085.00
2023-04-25T01:29:50.952Z,94085.00
2023-04-25T01:30:50.987Z,94087.00
2023-04-25T01:31:50.970Z,94085.00
2023-04-25T01:32:51.046Z,94081.00
2023-04-25T01:33:51.205Z,94079.00
2023-04-25T01:34:51.010Z,94079.00
2023-04-25T01:35:51.032Z,94081.00
2023-04-25T01:36:51.049Z,94077.00
2023-04-25T01:37:51.035Z,94077.00
2023-04-25T01:38:51.038Z,94079.00
2023-04-25T01:39:51.038Z,94075.00
2023-04-25T01:40:51.068Z,94079.00
2023-04-25T01:41:51.077Z,94079.00
2023-04-25T01:42:51.061Z,94079.00
2023-04-25T01:43:51.313Z,94079.00
2023-04-25T01:44:51.101Z,94079.00
2023-04-25T01:45:51.159Z,94079.00
2023-04-25T01:46:51.116Z,94081.00
2023-04-25T01:47:51.166Z,94081.00
2023-04-25T01:48:51.111Z,94083.00
2023-04-25T01:49:51.121Z,94081.00
2023-04-25T01:50:51.197Z,94085.00
2023-04-25T01:51:51.155Z,94085.00
2023-04-25T01:52:51.140Z,94083.00
2023-04-25T01:53:51.380Z,94087.00
2023-04-25T01:54:51.159Z,94087.00
2023-04-25T01:55:51.178Z,94083.00
2023-04-25T01:56:51.173Z,94085.00
2023-04-25T01:57:51.180Z,94085.00
2023-04-25T01:58:51.186Z,94087.00
2023-04-25T01:59:51.202Z,94085.00
2023-04-25T02:00:51.188Z,94085.00
2023-04-25T02:01:51.291Z,94085.00
2023-04-25T02:02:51.336Z,94085.00
2023-04-25T02:03:51.470Z,94088.00
2023-04-25T02:04:51.418Z,94088.00
2023-04-25T02:05:51.272Z,94083.00
2023-04-25T02:06:51.245Z,94083.00
2023-04-25T02:07:51.256Z,94081.00
2023-04-25T02:08:51.269Z,94083.00
2023-04-25T02:09:51.292Z,94083.00
2023-04-25T02:10:51.299Z,94085.00
2023-04-25T02:11:51.296Z,94085.00
2023-04-25T02:12:51.299Z,94085.00
2023-04-25T02:13:51.550Z,94083.00
2023-04-25T02:14:51.350Z,94083.00
2023-04-25T02:15:51.454Z,94081.00
2023-04-25T02:16:51.463Z,94081.00
2023-04-25T02:17:51.369Z,94081.00
2023-04-25T02:18:51.360Z,94081.00
2023-04-25T02:19:51.372Z,94085.00
2023-04-25T02:20:51.359Z,94083.00
2023-04-25T02:21:51.397Z,94085.00
2023-04-25T02:22:51.384Z,94083.00
2023-04-25T02:23:51.556Z,94083.00
2023-04-25T02:24:51.421Z,94085.00
2023-04-25T02:25:51.443Z,94083.00
2023-04-25T02:26:51.415Z,94083.00
2023-04-25T02:27:51.426Z,94085.00
2023-04-25T02:28:51.464Z,94085.00
2023-04-25T02:29:51.486Z,94087.00
2023-04-25T02:30:51.470Z,94085.00
2023-04-25T02:31:51.490Z,94085.00
2023-04-25T02:32:51.504Z,94087.00
2023-04-25T02:33:51.766Z,94087.00
2023-04-25T02:34:51.504Z,94087.00
2023-04-25T02:35:51.501Z,94087.00
2023-04-25T02:36:51.501Z,94087.00
2023-04-25T02:37:51.512Z,94087.00
2023-04-25T02:38:51.531Z,94087.00
2023-04-25T02:39:51.547Z,94090.00
2023-04-25T02:40:51.553Z,94092.00
2023-04-25T02:41:51.539Z,94090.00
2023-04-25T02:42:51.546Z,94090.00
2023-04-25T02:43:51.777Z,94090.00
2023-04-25T02:44:51.585Z,94088.00
2023-04-25T02:45:51.583Z,94088.00
2023-04-25T02:46:51.659Z,94090.00
2023-04-25T02:47:51.619Z,94090.00
2023-04-25T02:48:51.619Z,94090.00
2023-04-25T02:49:51.619Z,94090.00
2023-04-25T02:50:51.644Z,94090.00
2023-04-25T02:51:51.712Z,94090.00
2023-04-25T02:52:51.688Z,94088.00
2023-04-25T02:53:51.858Z,94090.00
2023-04-25T02:54:51.670Z,94090.00
2023-04-25T02:55:51.683Z,94090.00
2023-04-25T02:56:51.699Z,94090.00
2023-04-25T02:57:51.724Z,94088.00
2023-04-25T02:58:51.742Z,94087.00
2023-04-25T02:59:51.740Z,94087.00
2023-04-25T03:00:51.775Z,94087.00
2023-04-25T03:01:51.764Z,94088.00
2023-04-25T03:02:51.842Z,94088.00
2023-04-25T03:03:52.030Z,94087.00
2023-04-25T03:04:51.851Z,94087.00
2023-04-25T03:05:51.765Z,94087.00
2023-04-25T03:06:51.842Z,94087.00
2023-04-25T03:07:51.810Z,94088.00
2023-04-25T03:08:51.800Z,94085.00
2023-04-25T03:09:51.825Z,94085.00
2023-04-25T03:10:51.859Z,94083.00
2023-04-25T03:11:51.834Z,94081.00
2023-04-25T03:12:51.861Z,94079.00
2023-04-25T03:13:52.211Z,94081.00
2023-04-25T03:14:51.884Z,94081.00
2023-04-25T03:15:51.866Z,94081.00
2023-04-25T03:16:51.901Z,94077.00
2023-04-25T03:17:51.907Z,94075.00
2023-04-25T03:18:51.914Z,94073.00
2023-04-25T03:19:51.945Z,94075.00
2023-04-25T03:20:51.941Z,94075.00
2023-04-25T03:21:51.928Z,94077.00
2023-04-25T03:22:51.913Z,94077.00
2023-04-25T03:23:52.097Z,94077.00
2023-04-25T03:24:51.974Z,94075.00
2023-04-25T03:25:51.960Z,94075.00
2023-04-25T03:26:52.351Z,94071.00
2023-04-25T03:27:51.980Z,94069.00
2023-04-25T03:28:51.972Z,94071.00
2023-04-25T03:29:52.016Z,94073.00
2023-04-25T03:30:51.981Z,94071.00
2023-04-25T03:31:52.019Z,94075.00
2023-04-25T03:32:52.058Z,94075.00
2023-04-25T03:33:52.163Z,94075.00
2023-04-25T03:34:52.369Z,94073.00
2023-04-25T03:35:52.066Z,94069.00
2023-04-25T03:36:52.047Z,94071.00
2023-04-25T03:37:52.042Z,94069.00
2023-04-25T03:38:52.077Z,94065.00
2023-04-25T03:39:52.358Z,94063.00
2023-04-25T03:40:52.203Z,94065.00
2023-04-25T03:41:52.082Z,94067.00
2023-04-25T03:42:52.105Z,94061.00
2023-04-25T03:43:52.366Z,94063.00
2023-04-25T03:44:52.125Z,94065.00
2023-04-25T03:45:52.191Z,94063.00
2023-04-25T03:46:52.124Z,94063.00
2023-04-25T03:47:52.223Z,94063.00
2023-04-25T03:48:52.272Z,94063.00
2023-04-25T03:49:52.182Z,94063.00
2023-04-25T03:50:52.214Z,94063.00
2023-04-25T03:51:52.200Z,94063.00
2023-04-25T03:52:52.213Z,94065.00
2023-04-25T03:53:52.427Z,94065.00
2023-04-25T03:54:52.229Z,94065.00
2023-04-25T03:55:52.238Z,94065.00
2023-04-25T03:56:52.271Z,94061.00
2023-04-25T03:57:52.279Z,94063.00
2023-04-25T03:58:52.307Z,94063.00
2023-04-25T03:59:52.322Z,94063.00
2023-04-25T04:00:52.345Z,94063.00
2023-04-25T04:01:52.311Z,94059.00
2023-04-25T04:02:52.429Z,94059.00
2023-04-25T04:03:52.728Z,94061.00
2023-04-25T04:04:52.599Z,94053.00
2023-04-25T04:05:52.432Z,94055.00
2023-04-25T04:06:52.390Z,94055.00
2023-04-25T04:07:52.426Z,94055.00
2023-04-25T04:08:52.436Z,94055.00
2023-04-25T04:09:52.463Z,94055.00
2023-04-25T04:10:52.469Z,94059.00
2023-04-25T04:11:52.476Z,94059.00
2023-04-25T04:12:52.509Z,94057.00
2023-04-25T04:13:52.849Z,94063.00
2023-04-25T04:14:52.537Z,94063.00
2023-04-25T04:15:52.571Z,94063.00
2023-04-25T04:16:52.605Z,94065.00
2023-04-25T04:17:52.597Z,94063.00
2023-04-25T04:18:52.598Z,94059.00
2023-04-25T04:19:52.601Z,94063.00
2023-04-25T04:20:52.621Z,94063.00
2023-04-25T04:21:52.633Z,94059.00
2023-04-25T04:22:52.649Z,94059.00
2023-04-25T04:23:52.721Z,94059.00
2023-04-25T04:24:52.692Z,94059.00
2023-04-25T04:25:52.720Z,94059.00
2023-04-25T04:26:52.735Z,94057.00
2023-04-25T04:27:52.731Z,94057.00
2023-04-25T04:28:52.759Z,94055.00
2023-04-25T04:29:52.784Z,94053.00
2023-04-25T04:30:52.763Z,94053.00
2023-04-25T04:31:52.949Z,94053.00
2023-04-25T04:32:53.052Z,94053.00
2023-04-25T04:33:53.235Z,94053.00
2023-04-25T04:34:52.885Z,94055.00
2023-04-25T04:35:52.886Z,94055.00
2023-04-25T04:36:52.914Z,94057.00
2023-04-25T04:37:52.924Z,94057.00
2023-04-25T04:38:52.946Z,94055.00
2023-04-25T04:39:52.965Z,94057.00
2023-04-25T04:40:52.992Z,94055.00
2023-04-25T04:41:53.023Z,94055.00
2023-04-25T04:42:53.045Z,94055.00
2023-04-25T04:43:53.141Z,94057.00
2023-04-25T04:44:53.069Z,94055.00
2023-04-25T04:45:53.096Z,94055.00
2023-04-25T04:46:53.190Z,94057.00
2023-04-25T04:47:53.217Z,94057.00
2023-04-25T04:48:53.129Z,94057.00
2023-04-25T04:49:53.155Z,94055.00
2023-04-25T04:50:53.168Z,94059.00
2023-04-25T04:51:53.194Z,94057.00
2023-04-25T04:52:53.208Z,94059.00
2023-04-25T04:53:53.415Z,94057.00
2023-04-25T04:54:53.258Z,94059.00
2023-04-25T04:55:53.272Z,94059.00
2023-04-25T04:56:53.288Z,94059.00
2023-04-25T04:57:53.354Z,94061.00
2023-04-25T04:58:53.323Z,94061.00
2023-04-25T04:59:53.349Z,94055.00
2023-04-25T05:00:53.389Z,94057.00
2023-04-25T05:01:53.389Z,94055.00
2023-04-25T05:02:53.474Z,94055.00
2023-04-25T05:03:53.908Z,94055.00
2023-04-25T05:04:53.495Z,94053.00
2023-04-25T05:05:53.447Z,94053.00
2023-04-25T05:06:53.467Z,94053.00
2023-04-25T05:07:53.502Z,94051.00
2023-04-25T05:08:53.498Z,94051.00
2023-04-25T05:09:53.522Z,94049.00
2023-04-25T05:10:53.568Z,94049.00
2023-04-25T05:11:53.547Z,94049.00
2023-04-25T05:12:53.567Z,94049.00
2023-04-25T05:13:53.821Z,94053.00
2023-04-25T05:14:53.624Z,94053.00
2023-04-25T05:15:53.601Z,94053.00
2023-04-25T05:16:53.736Z,94053.00
2023-04-25T05:17:54.006Z,94053.00
2023-04-25T05:18:53.656Z,94051.00
2023-04-25T05:19:53.703Z,94051.00
2023-04-25T05:20:53.690Z,94051.00
2023-04-25T05:21:53.692Z,94049.00
2023-04-25T05:22:53.734Z,94047.00
2023-04-25T05:23:53.934Z,94045.00
2023-04-25T05:24:55.819Z,94049.00
2023-04-25T05:25:53.881Z,94047.00
2023-04-25T05:26:53.805Z,94051.00
2023-04-25T05:27:53.813Z,94045.00
2023-04-25T05:28:53.841Z,94043.00
2023-04-25T05:29:53.858Z,94040.00
2023-04-25T05:30:53.855Z,94040.00
2023-04-25T05:31:53.880Z,94040.00
2023-04-25T05:32:54.435Z,94040.00
2023-04-25T05:33:53.980Z,94041.00
2023-04-25T05:34:54.005Z,94041.00
2023-04-25T05:35:54.375Z,94040.00
2023-04-25T05:36:53.960Z,94041.00
2023-04-25T05:37:54.409Z,94038.00
2023-04-25T05:38:54.962Z,94040.00
2023-04-25T05:39:53.983Z,94036.00
2023-04-25T05:40:53.983Z,94036.00
2023-04-25T05:41:54.049Z,94026.00
2023-04-25T05:42:54.404Z,94032.00
2023-04-25T05:43:57.060Z,94032.00
2023-04-25T05:44:54.236Z,94034.00
2023-04-25T05:45:54.174Z,94036.00
2023-04-25T05:46:54.153Z,94034.00
2023-04-25T05:47:54.434Z,94034.00
2023-04-25T05:48:54.131Z,94032.00
2023-04-25T05:49:54.168Z,94030.00
2023-04-25T05:50:54.420Z,94024.00
2023-04-25T05:51:54.139Z,94022.00
2023-04-25T05:52:54.100Z,94020.00
2023-04-25T05:53:54.183Z,94006.00
2023-04-25T05:54:54.094Z,94004.00
2023-04-25T05:55:54.117Z,93998.00
2023-04-25T05:56:54.141Z,93994.00
2023-04-25T05:57:54.068Z,93998.00
2023-04-25T05:58:54.076Z,94002.00
2023-04-25T05:59:54.072Z,94000.00
2023-04-25T06:00:54.062Z,94002.00
2023-04-25T06:01:54.138Z,94004.00
2023-04-25T06:02:54.158Z,94006.00
2023-04-25T06:03:54.418Z,94006.00
2023-04-25T06:04:54.237Z,94008.00
2023-04-25T06:05:54.503Z,94008.00
2023-04-25T06:06:54.911Z,94008.00
2023-04-25T06:07:54.017Z,94010.00
2023-04-25T06:08:54.007Z,94012.00
2023-04-25T06:09:54.026Z,94010.00
2023-04-25T06:10:54.026Z,94010.00
2023-04-25T06:11:54.001Z,94008.00
2023-04-25T06:12:53.979Z,94010.00
2023-04-25T06:13:54.090Z,94008.00
2023-04-25T06:14:54.000Z,94006.00
2023-04-25T06:15:54.025Z,94004.00
2023-04-25T06:16:53.933Z,94006.00
2023-04-25T06:17:53.975Z,94008.00
2023-04-25T06:18:53.932Z,94010.00
2023-04-25T06:19:54.016Z,94012.00
2023-04-25T06:20:53.921Z,94010.00
2023-04-25T06:21:53.954Z,94012.00
2023-04-25T06:22:53.934Z,94008.00
2023-04-25T06:23:54.177Z,94008.00
2023-04-25T06:24:53.910Z,94010.00
2023-04-25T06:25:53.960Z,94008.00
2023-04-25T06:26:53.931Z,94008.00
2023-04-25T06:27:53.968Z,94004.00
2023-04-25T06:28:53.979Z,94006.00
2023-04-25T06:29:54.017Z,94002.00
2023-04-25T06:30:54.050Z,94002.00
2023-04-25T06:31:54.107Z,94002.00
2023-04-25T06:32:54.190Z,94002.00
2023-04-25T06:33:54.101Z,94004.00
2023-04-25T06:34:54.107Z,94004.00
2023-04-25T06:35:54.128Z,94004.00
2023-04-25T06:36:54.137Z,94004.00
2023-04-25T06:37:54.388Z,94004.00
2023-04-25T06:38:54.182Z,94004.00
2023-04-25T06:39:54.244Z,94006.00
2023-04-25T06:40:54.911Z,94002.00
2023-04-25T06:41:54.933Z,94002.00
2023-04-25T06:42:54.918Z,94004.00
2023-04-25T06:43:54.282Z,94004.00
2023-04-25T06:44:54.289Z,93998.00
2023-04-25T06:45:54.298Z,93998.00
2023-04-25T06:46:54.328Z,93998.00
2023-04-25T06:47:54.366Z,93994.00
2023-04-25T06:48:54.377Z,93996.00
2023-04-25T06:49:54.431Z,93988.00
2023-04-25T06:50:54.468Z,93988.00
2023-04-25T06:51:54.517Z,93988.00
2023-04-25T06:52:54.576Z,93988.00
2023-04-25T06:53:54.633Z,93986.00
2023-04-25T06:54:54.714Z,93983.00
2023-04-25T06:55:55.391Z,93983.00
2023-04-25T06:56:54.812Z,93983.00
2023-04-25T06:57:54.982Z,93981.00
2023-04-25T06:58:54.914Z,93977.00
2023-04-25T06:59:54.963Z,93973.00
2023-04-25T07:00:55.132Z,93975.00
2023-04-25T07:01:55.066Z,93975.00
2023-04-25T07:02:55.525Z,93975.00
2023-04-25T07:03:55.287Z,93973.00
2023-04-25T07:04:55.319Z,93971.00
2023-04-25T07:05:55.281Z,93971.00
2023-04-25T07:06:55.268Z,93971.00
2023-04-25T07:07:55.309Z,93973.00
2023-04-25T07:08:55.350Z,93973.00
2023-04-25T07:09:55.366Z,93969.00
2023-04-25T07:10:55.383Z,93967.00
2023-04-25T07:11:55.435Z,93967.00
2023-04-25T07:12:55.901Z,93967.00
2023-04-25T07:13:55.499Z,93969.00
2023-04-25T07:14:55.561Z,93973.00
2023-04-25T07:15:57.306Z,93971.00
2023-04-25T07:16:56.432Z,93971.00
2023-04-25T07:17:56.002Z,93969.00
2023-04-25T07:18:55.793Z,93967.00
2023-04-25T07:19:55.824Z,93965.00
2023-04-25T07:20:55.870Z,93967.00
2023-04-25T07:21:55.907Z,93963.00
2023-04-25T07:22:55.935Z,93963.00
2023-04-25T07:23:55.958Z,93967.00
2023-04-25T07:24:56.016Z,93965.00
2023-04-25T07:25:56.066Z,93961.00
2023-04-25T07:26:56.089Z,93967.00
2023-04-25T07:27:56.135Z,93963.00
2023-04-25T07:28:56.264Z,93963.00
2023-04-25T07:29:56.311Z,93961.00
2023-04-25T07:30:56.293Z,93963.00
2023-04-25T07:31:56.429Z,93963.00
2023-04-25T07:32:56.480Z,93967.00
2023-04-25T07:33:56.451Z,93971.00
2023-04-25T07:34:56.525Z,93969.00
2023-04-25T07:35:56.918Z,93971.00
2023-04-25T07:36:56.629Z,93969.00
2023-04-25T07:37:56.638Z,93969.00
2023-04-25T07:38:56.965Z,93967.00
2023-04-25T07:39:56.672Z,93965.00
2023-04-25T07:40:56.963Z,93967.00
2023-04-25T07:41:56.804Z,93967.00
2023-04-25T07:42:56.869Z,93965.00
2023-04-25T07:43:56.880Z,93967.00
2023-04-25T07:44:56.947Z,93967.00
2023-04-25T07:45:56.997Z,93965.00
2023-04-25T07:46:57.131Z,93963.00
2023-04-25T07:47:57.095Z,93965.00
2023-04-25T07:48:57.432Z,93963.00
2023-04-25T07:49:57.169Z,93963.00
2023-04-25T07:50:57.317Z,93961.00
2023-04-25T07:51:57.213Z,93963.00
2023-04-25T07:52:57.265Z,93967.00
2023-04-25T07:53:57.475Z,93967.00
2023-04-25T07:54:57.316Z,93967.00
2023-04-25T07:55:57.315Z,93969.00
2023-04-25T07:56:57.481Z,93967.00
2023-04-25T07:57:57.403Z,93971.00
2023-04-25T07:58:57.481Z,93969.00
2023-04-25T07:59:57.404Z,93967.00
2023-04-25T08:00:57.400Z,93967.00
2023-04-25T08:01:57.395Z,93967.00
2023-04-25T08:02:57.500Z,93967.00
2023-04-25T08:03:57.677Z,93969.00
2023-04-25T08:04:57.679Z,93969.00
2023-04-25T08:05:58.176Z,93967.00
2023-04-25T08:06:57.452Z,93967.00
2023-04-25T08:07:57.431Z,93967.00
2023-04-25T08:08:57.424Z,93971.00
2023-04-25T08:09:57.467Z,93969.00
2023-04-25T08:10:57.434Z,93971.00
2023-04-25T08:11:57.428Z,93971.00
2023-04-25T08:12:57.406Z,93971.00
2023-04-25T08:13:57.420Z,93969.00
2023-04-25T08:14:57.469Z,93967.00
2023-04-25T08:15:57.929Z,93967.00
2023-04-25T08:16:57.453Z,93969.00
2023-04-25T08:17:57.482Z,93969.00
2023-04-25T08:18:57.506Z,93969.00
2023-04-25T08:19:58.447Z,93967.00
2023-04-25T08:20:57.453Z,93965.00
2023-04-25T08:21:57.465Z,93965.00
2023-04-25T08:22:57.488Z,93965.00
2023-04-25T08:23:57.460Z,93963.00
2023-04-25T08:24:57.486Z,93959.00
2023-04-25T08:25:57.531Z,93963.00
2023-04-25T08:26:57.510Z,93961.00
2023-04-25T08:27:57.526Z,93963.00
2023-04-25T08:28:58.002Z,93959.00
2023-04-25T08:29:57.594Z,93957.00
2023-04-25T08:30:57.591Z,93957.00
2023-04-25T08:31:57.607Z,93961.00
2023-04-25T08:32:57.722Z,93959.00
2023-04-25T08:33:57.642Z,93961.00
2023-04-25T08:34:57.673Z,93961.00
2023-04-25T08:35:57.812Z,93959.00
2023-04-25T08:36:57.755Z,93959.00
2023-04-25T08:37:57.951Z,93959.00
2023-04-25T08:38:58.055Z,93959.00
2023-04-25T08:39:57.801Z,93957.00
2023-04-25T08:40:57.916Z,93957.00
2023-04-25T08:41:57.874Z,93955.00
2023-04-25T08:42:57.905Z,93955.00
2023-04-25T08:43:58.531Z,93959.00
2023-04-25T08:44:58.042Z,93959.00
2023-04-25T08:45:57.969Z,93961.00
2023-04-25T08:46:58.042Z,93959.00
2023-04-25T08:47:58.114Z,93959.00
2023-04-25T08:48:58.348Z,93953.00
2023-04-25T08:49:58.056Z,93957.00
2023-04-25T08:50:58.442Z,93955.00
2023-04-25T08:51:58.197Z,93957.00
2023-04-25T08:52:58.145Z,93955.00
2023-04-25T08:54:34.198Z,93955.00
2023-04-25T08:54:59.181Z,93955.00
2023-04-25T08:55:58.174Z,93955.00
2023-04-25T08:56:58.119Z,93957.00
2023-04-25T08:57:58.174Z,93957.00
2023-04-25T08:58:58.438Z,93955.00
2023-04-25T08:59:58.206Z,93955.00
2023-04-25T09:00:58.387Z,93955.00
2023-04-25T09:01:58.310Z,93955.00
2023-04-25T09:02:58.395Z,93955.00
2023-04-25T09:03:58.430Z,93951.00
2023-04-25T09:04:58.408Z,93953.00
2023-04-25T09:05:58.358Z,93947.00
2023-04-25T09:06:58.433Z,93947.00
2023-04-25T09:07:58.483Z,93945.00
2023-04-25T09:08:58.756Z,93947.00
2023-04-25T09:09:58.559Z,93949.00
2023-04-25T09:10:58.536Z,93945.00
2023-04-25T09:11:58.577Z,93947.00
2023-04-25T09:12:58.576Z,93947.00
2023-04-25T09:13:58.615Z,93945.00
2023-04-25T09:14:58.633Z,93947.00
2023-04-25T09:15:58.746Z,93945.00
2023-04-25T09:16:58.806Z,93947.00
2023-04-25T09:17:58.758Z,93949.00
2023-04-25T09:18:58.756Z,93947.00
2023-04-25T09:19:58.759Z,93947.00
2023-04-25T09:21:01.776Z,93951.00
2023-04-25T09:21:58.780Z,93955.00
2023-04-25T09:22:58.750Z,93953.00
2023-04-25T09:23:58.734Z,93951.00
2023-04-25T09:24:58.727Z,93953.00
2023-04-25T09:25:58.745Z,93953.00
2023-04-25T09:26:58.722Z,93951.00
2023-04-25T09:27:58.698Z,93955.00
2023-04-25T09:28:58.727Z,93951.00
2023-04-25T09:29:59.454Z,93953.00
2023-04-25T09:30:58.716Z,93951.00
2023-04-25T09:31:59.017Z,93955.00
2023-04-25T09:32:58.785Z,93951.00
2023-04-25T09:33:58.760Z,93955.00
2023-04-25T09:34:58.697Z,93951.00
2023-04-25T09:35:58.737Z,93953.00
2023-04-25T09:36:58.965Z,93955.00
2023-04-25T09:37:58.671Z,93953.00
2023-04-25T09:38:58.666Z,93953.00
2023-04-25T09:39:58.647Z,93955.00
2023-04-25T09:40:58.674Z,93957.00
2023-04-25T09:41:58.700Z,93961.00
2023-04-25T09:42:58.610Z,93959.00
2023-04-25T09:43:58.754Z,93961.00
2023-04-25T09:44:58.648Z,93961.00
2023-04-25T09:45:59.123Z,93961.00
2023-04-25T09:46:58.966Z,93963.00
2023-04-25T09:47:58.616Z,93967.00
2023-04-25T09:48:59.016Z,93969.00
2023-04-25T09:49:58.568Z,93969.00
2023-04-25T09:50:58.563Z,93971.00
2023-04-25T09:51:59.037Z,93969.00
2023-04-25T09:52:58.567Z,93969.00
2023-04-25T09:53:58.536Z,93967.00
2023-04-25T09:54:58.571Z,93969.00
2023-04-25T09:55:58.522Z,93969.00
2023-04-25T09:56:58.980Z,93973.00
2023-04-25T09:57:58.507Z,93971.00
2023-04-25T09:58:58.501Z,93967.00
2023-04-25T09:59:58.501Z,93969.00
2023-04-25T10:00:58.553Z,93967.00
2023-04-25T10:01:58.481Z,93967.00
2023-04-25T10:02:58.648Z,93967.00
2023-04-25T10:03:59.726Z,93965.00
2023-04-25T10:04:59.008Z,93965.00
2023-04-25T10:05:58.458Z,93963.00
2023-04-25T10:06:58.471Z,93965.00
2023-04-25T10:07:58.435Z,93959.00
2023-04-25T10:08:58.423Z,93963.00
2023-04-25T10:09:58.431Z,93957.00
2023-04-25T10:10:58.434Z,93957.00
2023-04-25T10:11:58.552Z,93955.00
2023-04-25T10:12:58.409Z,93957.00
2023-04-25T10:13:58.396Z,93953.00
2023-04-25T10:16:17.166Z,93953.00
2023-04-25T10:17:17.146Z,93951.00
2023-04-25T10:18:17.094Z,93947.00
2023-04-25T10:19:17.360Z,93951.00
2023-04-25T10:20:17.114Z,93951.00
2023-04-25T10:21:17.079Z,93945.00
2023-04-25T10:22:17.339Z,93943.00
2023-04-25T10:23:17.091Z,93941.00
2023-04-25T10:24:17.071Z,93939.00
2023-04-25T10:25:17.097Z,93934.00
2023-04-25T10:26:17.058Z,93934.00
2023-04-25T10:27:17.316Z,93938.00
2023-04-25T10:28:17.061Z,93936.00
2023-04-25T10:29:17.040Z,93936.00
2023-04-25T10:30:17.468Z,93934.00
2023-04-25T10:31:17.175Z,93934.00
2023-04-25T10:32:17.044Z,93932.00
2023-04-25T10:33:17.036Z,93926.00
2023-04-25T10:34:16.994Z,93928.00
2023-04-25T10:35:16.988Z,93932.00
2023-04-25T10:36:17.007Z,93926.00
2023-04-25T10:37:16.983Z,93926.00
2023-04-25T10:38:16.964Z,93926.00
2023-04-25T10:39:17.310Z,93926.00
2023-04-25T10:40:16.941Z,93926.00
2023-04-25T10:41:16.947Z,93924.00
2023-04-25T10:42:16.932Z,93924.00
2023-04-25T10:43:16.937Z,93924.00
2023-04-25T10:44:16.939Z,93922.00
2023-04-25T10:45:16.941Z,93918.00
2023-04-25T10:46:17.009Z,93918.00
2023-04-25T10:47:16.880Z,93916.00
2023-04-25T10:48:16.883Z,93918.00
2023-04-25T10:49:17.321Z,93918.00
2023-04-25T10:50:16.900Z,93918.00
2023-04-25T10:51:16.881Z,93914.00
2023-04-25T10:52:16.967Z,93912.00
2023-04-25T10:53:16.850Z,93912.00
2023-04-25T10:54:16.866Z,93910.00
2023-04-25T10:55:16.830Z,93912.00
2023-04-25T10:56:16.840Z,93910.00
2023-04-25T10:57:16.842Z,93914.00
2023-04-25T10:58:16.822Z,93908.00
2023-04-25T10:59:17.854Z,93910.00
2023-04-25T11:00:16.963Z,93910.00
2023-04-25T11:01:16.864Z,93910.00
2023-04-25T11:02:16.933Z,93910.00
2023-04-25T11:03:17.023Z,93906.00
2023-04-25T11:04:17.079Z,93904.00
2023-04-25T11:05:17.683Z,93904.00
2023-04-25T11:06:16.903Z,93902.00
2023-04-25T11:07:16.964Z,93902.00
2023-04-25T11:08:16.918Z,93906.00
2023-04-25T11:09:16.915Z,93906.00
2023-04-25T11:10:17.331Z,93908.00
2023-04-25T11:11:16.885Z,93906.00
2023-04-25T11:12:17.327Z,93910.00
2023-04-25T11:13:16.901Z,93908.00
2023-04-25T11:14:17.328Z,93904.00
2023-04-25T11:15:17.304Z,93910.00
2023-04-25T11:16:26.718Z,93908.00
2023-04-25T11:17:17.957Z,93910.00
2023-04-25T11:18:16.959Z,93910.00
2023-04-25T11:19:16.940Z,93904.00
2023-04-25T11:20:16.933Z,93908.00
2023-04-25T11:21:16.940Z,93914.00
2023-04-25T11:22:16.907Z,93920.00
2023-04-25T11:23:16.869Z,93924.00
2023-04-25T11:24:16.869Z,93928.00
2023-04-25T11:25:16.868Z,93932.00
2023-04-25T11:26:16.872Z,93932.00
2023-04-25T11:27:17.317Z,93930.00
2023-04-25T11:28:16.843Z,93926.00
2023-04-25T11:29:16.846Z,93926.00
2023-04-25T11:30:16.838Z,93918.00
2023-04-25T11:31:16.835Z,93928.00
2023-04-25T11:32:18.087Z,93941.00
2023-04-25T11:33:16.945Z,93938.00
2023-04-25T11:34:16.911Z,93938.00
2023-04-25T11:35:16.926Z,93938.00
2023-04-25T11:36:17.837Z,93939.00
2023-04-25T11:37:16.972Z,93938.00
2023-04-25T11:38:17.006Z,93936.00
2023-04-25T11:39:16.996Z,93932.00
2023-04-25T11:40:17.047Z,93934.00
2023-04-25T11:41:17.034Z,93936.00
2023-04-25T11:42:17.076Z,93938.00
2023-04-25T11:43:17.109Z,93936.00
2023-04-25T11:44:17.106Z,93938.00
2023-04-25T11:45:17.110Z,93941.00
2023-04-25T11:46:17.206Z,93936.00